PWSweather.com
Personal Weather Stations
Station Observations
ALMOSTER
Urb. Mas Carreras, AlmosterES 43393

Urb. Mas CarrerasAlmosterES 43393

Lat: 41.1908333333, Lon: 1.1086111111

Elevation: 836.6

Station Type: Davis Vantage Pro 2

http://www.meteoalmoster.net

High Low Average
Temperature 75.2°F24.0°C 59.7°F15.4°C 68.7°F20.4°C
Dew Point 64.0°F17.8°C 55.8°F13.2°C 60.4°F15.8°C
Winds 11.0 mph 17.7 kmh Calm Calm 3.0 mph E4.8 kmh E
Wind Gusts 21.0 mph33.8 kmh -- 6.0 mph9.7 kmh
Humidity 89% 57% 76%
Pressure 30.06 in1017.9 mb 29.98 in1015.2 mb -
Precipitation 0.00 in0.0 mm - -
Hour Temp Dew Point Humidity Winds Wind Gusts Pressure Precip Precip Rate Daily Precip Total
12:00 AM 62.2°F16.8°C 56.5°F13.6°C 81% Calm Calm -- 30.01 in1016.3 mb 0.00 in0.0 mm 0.00 in0.0 mm 0.00 in0.0 mm
12:30 AM 63.0°F17.2°C 57.7°F14.3°C 83% Calm Calm -- 30.01 in1016.3 mb 0.00 in0.0 mm 0.00 in0.0 mm 0.00 in0.0 mm
01:00 AM 64.2°F17.9°C 59.9°F15.5°C 86% Calm Calm -- 30.01 in1016.3 mb 0.00 in0.0 mm 0.00 in0.0 mm 0.00 in0.0 mm
01:30 AM 64.8°F18.2°C 60.4°F15.8°C 86% Calm Calm -- 30.00 in1015.9 mb 0.00 in0.0 mm 0.00 in0.0 mm 0.00 in0.0 mm
02:00 AM 64.6°F18.1°C 60.3°F15.7°C 86% Calm Calm -- 30.01 in1016.3 mb 0.00 in0.0 mm 0.00 in0.0 mm 0.00 in0.0 mm
02:30 AM 62.4°F16.9°C 58.8°F14.9°C 88% 1.0 mph NW1.6 kmh NW 7.0 mph11.3 kmh 30.00 in1015.9 mb 0.00 in0.0 mm 0.00 in0.0 mm 0.00 in0.0 mm
03:00 AM 61.3°F16.3°C 57.7°F14.3°C 88% Calm Calm -- 30.00 in1015.9 mb 0.00 in0.0 mm 0.00 in0.0 mm 0.00 in0.0 mm
03:30 AM 61.0°F16.1°C 57.4°F14.1°C 88% Calm Calm -- 29.99 in1015.6 mb 0.00 in0.0 mm 0.00 in0.0 mm 0.00 in0.0 mm
04:00 AM 61.0°F16.1°C 57.6°F14.2°C 89% Calm Calm -- 29.99 in1015.6 mb 0.00 in0.0 mm 0.00 in0.0 mm 0.00 in0.0 mm
04:30 AM 59.7°F15.4°C 56.5°F13.6°C 89% Calm Calm -- 29.99 in1015.6 mb 0.00 in0.0 mm 0.00 in0.0 mm 0.00 in0.0 mm
05:00 AM 60.3°F15.7°C 56.3°F13.5°C 87% Calm Calm -- 29.99 in1015.6 mb 0.00 in0.0 mm 0.00 in0.0 mm 0.00 in0.0 mm
05:30 AM 59.9°F15.5°C 55.9°F13.3°C 87% Calm Calm -- 29.99 in1015.6 mb 0.00 in0.0 mm 0.00 in0.0 mm 0.00 in0.0 mm
06:00 AM 60.3°F15.7°C 55.8°F13.2°C 85% Calm Calm -- 30.00 in1015.9 mb 0.00 in0.0 mm 0.00 in0.0 mm 0.00 in0.0 mm
06:30 AM 63.3°F17.4°C 57.2°F14.0°C 80% Calm Calm -- 30.00 in1015.9 mb 0.00 in0.0 mm 0.00 in0.0 mm 0.00 in0.0 mm
07:00 AM 67.3°F19.6°C 58.3°F14.6°C 73% Calm Calm -- 30.00 in1015.9 mb 0.00 in0.0 mm 0.00 in0.0 mm 0.00 in0.0 mm
07:30 AM 67.8°F19.9°C 59.5°F15.3°C 75% Calm Calm 3.0 mph4.8 kmh 30.01 in1016.3 mb 0.00 in0.0 mm 0.00 in0.0 mm 0.00 in0.0 mm
08:00 AM 68.4°F20.2°C 59.7°F15.4°C 74% Calm Calm 3.0 mph4.8 kmh 30.01 in1016.3 mb 0.00 in0.0 mm 0.00 in0.0 mm 0.00 in0.0 mm
08:30 AM 70.9°F21.6°C 60.1°F15.6°C 69% Calm Calm -- 30.01 in1016.3 mb 0.00 in0.0 mm 0.00 in0.0 mm 0.00 in0.0 mm
09:00 AM 70.9°F21.6°C 58.5°F14.7°C 65% 1.0 mph SE1.6 kmh SE 6.0 mph9.7 kmh 30.01 in1016.3 mb 0.00 in0.0 mm 0.00 in0.0 mm 0.00 in0.0 mm
09:30 AM 72.1°F22.3°C 58.8°F14.9°C 63% 2.0 mph ESE3.2 kmh ESE 7.0 mph11.3 kmh 30.01 in1016.3 mb 0.00 in0.0 mm 0.00 in0.0 mm 0.00 in0.0 mm
10:00 AM 73.2°F22.9°C 58.5°F14.7°C 60% 4.0 mph SE6.4 kmh SE 8.0 mph12.9 kmh 30.01 in1016.3 mb 0.00 in0.0 mm 0.00 in0.0 mm 0.00 in0.0 mm
10:30 AM 74.7°F23.7°C 58.3°F14.6°C 57% 6.0 mph SE9.7 kmh SE 14.0 mph22.5 kmh 30.00 in1015.9 mb 0.00 in0.0 mm 0.00 in0.0 mm 0.00 in0.0 mm
11:00 AM 75.0°F23.9°C 58.8°F14.9°C 57% 3.0 mph W4.8 kmh W 9.0 mph14.5 kmh 30.00 in1015.9 mb 0.00 in0.0 mm 0.00 in0.0 mm 0.00 in0.0 mm
11:30 AM 75.2°F24.0°C 60.8°F16.0°C 61% 11.0 mph S17.7 kmh S 21.0 mph33.8 kmh 30.00 in1015.9 mb 0.00 in0.0 mm 0.00 in0.0 mm 0.00 in0.0 mm
12:00 PM 74.8°F23.8°C 61.9°F16.6°C 64% 9.0 mph S14.5 kmh S 17.0 mph27.4 kmh 30.00 in1015.9 mb 0.00 in0.0 mm 0.00 in0.0 mm 0.00 in0.0 mm
12:30 PM 74.1°F23.4°C 61.5°F16.4°C 65% 6.0 mph SW9.7 kmh SW 13.0 mph20.9 kmh 30.00 in1015.9 mb 0.00 in0.0 mm 0.00 in0.0 mm 0.00 in0.0 mm
01:00 PM 74.1°F23.4°C 62.1°F16.7°C 66% 8.0 mph S12.9 kmh S 15.0 mph24.1 kmh 30.00 in1015.9 mb 0.00 in0.0 mm 0.00 in0.0 mm 0.00 in0.0 mm
01:30 PM 73.6°F23.1°C 62.2°F16.8°C 68% 8.0 mph SSW12.9 kmh SSW 17.0 mph27.4 kmh 30.00 in1015.9 mb 0.00 in0.0 mm 0.00 in0.0 mm 0.00 in0.0 mm
02:00 PM 73.6°F23.1°C 62.2°F16.8°C 68% 11.0 mph SSW17.7 kmh SSW 19.0 mph30.6 kmh 30.00 in1015.9 mb 0.00 in0.0 mm 0.00 in0.0 mm 0.00 in0.0 mm
02:30 PM 73.2°F22.9°C 62.1°F16.7°C 68% 10.0 mph SW16.1 kmh SW 16.0 mph25.7 kmh 30.00 in1015.9 mb 0.00 in0.0 mm 0.00 in0.0 mm 0.00 in0.0 mm
03:00 PM 74.3°F23.5°C 61.7°F16.5°C 65% 8.0 mph SSW12.9 kmh SSW 14.0 mph22.5 kmh 30.00 in1015.9 mb 0.00 in0.0 mm 0.00 in0.0 mm 0.00 in0.0 mm
03:30 PM 73.8°F23.2°C 62.2°F16.8°C 67% 9.0 mph SSW14.5 kmh SSW 17.0 mph27.4 kmh 30.00 in1015.9 mb 0.00 in0.0 mm 0.00 in0.0 mm 0.00 in0.0 mm
04:00 PM 74.1°F23.4°C 60.8°F16.0°C 63% 8.0 mph SSW12.9 kmh SSW 14.0 mph22.5 kmh 29.99 in1015.6 mb 0.00 in0.0 mm 0.00 in0.0 mm 0.00 in0.0 mm
04:30 PM 74.3°F23.5°C 61.3°F16.3°C 64% 8.0 mph SSW12.9 kmh SSW 14.0 mph22.5 kmh 29.99 in1015.6 mb 0.00 in0.0 mm 0.00 in0.0 mm 0.00 in0.0 mm
05:00 PM 74.1°F23.4°C 61.5°F16.4°C 65% 8.0 mph SW12.9 kmh SW 13.0 mph20.9 kmh 29.99 in1015.6 mb 0.00 in0.0 mm 0.00 in0.0 mm 0.00 in0.0 mm
05:30 PM 73.9°F23.3°C 62.2°F16.8°C 67% 6.0 mph SW9.7 kmh SW 11.0 mph17.7 kmh 29.99 in1015.6 mb 0.00 in0.0 mm 0.00 in0.0 mm 0.00 in0.0 mm
06:00 PM 73.0°F22.8°C 62.8°F17.1°C 70% 7.0 mph SSW11.3 kmh SSW 14.0 mph22.5 kmh 29.98 in1015.2 mb 0.00 in0.0 mm 0.00 in0.0 mm 0.00 in0.0 mm
06:30 PM 71.8°F22.1°C 63.9°F17.7°C 76% 6.0 mph SSW9.7 kmh SSW 12.0 mph19.3 kmh 29.99 in1015.6 mb 0.00 in0.0 mm 0.00 in0.0 mm 0.00 in0.0 mm
07:00 PM 70.9°F21.6°C 64.0°F17.8°C 79% 4.0 mph SSW6.4 kmh SSW 11.0 mph17.7 kmh 29.99 in1015.6 mb 0.00 in0.0 mm 0.00 in0.0 mm 0.00 in0.0 mm
07:30 PM 70.2°F21.2°C 63.7°F17.6°C 80% Calm Calm -- 30.00 in1015.9 mb 0.00 in0.0 mm 0.00 in0.0 mm 0.00 in0.0 mm
08:00 PM 69.4°F20.8°C 63.7°F17.6°C 82% Calm Calm -- 30.01 in1016.3 mb 0.00 in0.0 mm 0.00 in0.0 mm 0.00 in0.0 mm
08:30 PM 69.1°F20.6°C 64.0°F17.8°C 84% Calm Calm -- 30.01 in1016.3 mb 0.00 in0.0 mm 0.00 in0.0 mm 0.00 in0.0 mm
09:00 PM 68.5°F20.3°C 63.9°F17.7°C 85% Calm Calm -- 30.02 in1016.6 mb 0.00 in0.0 mm 0.00 in0.0 mm 0.00 in0.0 mm
09:30 PM 68.4°F20.2°C 63.7°F17.6°C 85% Calm Calm -- 30.03 in1016.9 mb 0.00 in0.0 mm 0.00 in0.0 mm 0.00 in0.0 mm
10:00 PM 67.8°F19.9°C 63.9°F17.7°C 87% Calm Calm -- 30.05 in1017.6 mb 0.00 in0.0 mm 0.00 in0.0 mm 0.00 in0.0 mm
10:30 PM 67.3°F19.6°C 63.3°F17.4°C 87% Calm Calm -- 30.05 in1017.6 mb 0.00 in0.0 mm 0.00 in0.0 mm 0.00 in0.0 mm
11:00 PM 66.4°F19.1°C 62.2°F16.8°C 87% Calm Calm -- 30.05 in1017.6 mb 0.00 in0.0 mm 0.00 in0.0 mm 0.00 in0.0 mm
11:30 PM 65.5°F18.6°C 61.5°F16.4°C 87% Calm Calm -- 30.06 in1017.9 mb 0.00 in0.0 mm 0.00 in0.0 mm 0.00 in0.0 mm